Terminal Aerodrome Forecast
Issued by NWS Green Bay, WI

Home | Current Version | Previous Version | Graphics & Text | Print | Product List | Glossary On
Versions: 1 2 3 4 5 6 7 8 9 10 11 12 13 14 15 16 17
000
FTUS43 KGRB 191731
TAFGRB
TAF
KGRB 191731Z 1918/2018 28013G18KT P6SM FEW030 SCT120
     FM192100 27011G17KT P6SM BKN100
     FM200000 24007KT P6SM BKN100 WS015/26030KT
     FM200300 23006KT P6SM BKN100 WS015/27035KT
     FM200800 23006KT P6SM BKN250
     FM201500 22007KT P6SM BKN250=

USA.gov is the U.S. government's official web portal to all federal, state and local government web resources and services.